sensor_id;sensor_type;location;lat;lon;timestamp;pressure;altitude;pressure_sealevel;temperature;humidity
75420;BME280;63998;52.488;13.428;2022-11-09T00:02:21;100554.72;;;12.87;61.15
75420;BME280;63998;52.488;13.428;2022-11-09T00:04:46;100554.78;;;12.81;60.94
75420;BME280;63998;52.488;13.428;2022-11-09T00:07:16;100546.16;;;12.76;61.00
75420;BME280;63998;52.488;13.428;2022-11-09T00:09:46;100547.94;;;12.71;60.81
75420;BME280;63998;52.488;13.428;2022-11-09T00:12:14;100555.78;;;12.71;61.34
75420;BME280;63998;52.488;13.428;2022-11-09T00:14:40;100556.63;;;12.71;60.99
75420;BME280;63998;52.488;13.428;2022-11-09T00:17:08;100549.69;;;12.69;61.25
75420;BME280;63998;52.488;13.428;2022-11-09T00:19:33;100547.06;;;12.73;60.90
75420;BME280;63998;52.488;13.428;2022-11-09T00:21:58;100547.06;;;12.72;60.62
75420;BME280;63998;52.488;13.428;2022-11-09T00:24:26;100540.91;;;12.79;61.77
75420;BME280;63998;52.488;13.428;2022-11-09T00:26:51;100544.47;;;12.72;60.53
75420;BME280;63998;52.488;13.428;2022-11-09T00:29:16;100551.34;;;12.76;61.21
75420;BME280;63998;52.488;13.428;2022-11-09T00:31:44;100540.13;;;12.72;60.95
75420;BME280;63998;52.488;13.428;2022-11-09T00:34:11;100537.47;;;12.74;61.12
75420;BME280;63998;52.488;13.428;2022-11-09T00:36:39;100541.88;;;12.70;61.21
75420;BME280;63998;52.488;13.428;2022-11-09T00:39:04;100541.00;;;12.70;60.81
75420;BME280;63998;52.488;13.428;2022-11-09T00:41:32;100546.16;;;12.76;61.15
75420;BME280;63998;52.488;13.428;2022-11-09T00:43:57;100542.75;;;12.71;60.98
75420;BME280;63998;52.488;13.428;2022-11-09T00:46:26;100540.91;;;12.79;61.11
75420;BME280;63998;52.488;13.428;2022-11-09T00:48:54;100542.63;;;12.80;60.73
75420;BME280;63998;52.488;13.428;2022-11-09T00:51:20;100543.59;;;12.71;60.45
75420;BME280;63998;52.488;13.428;2022-11-09T00:53:46;100542.75;;;12.71;60.51
75420;BME280;63998;52.488;13.428;2022-11-09T00:56:12;100533.22;;;12.67;60.63
75420;BME280;63998;52.488;13.428;2022-11-09T00:58:38;100537.63;;;12.60;60.85
75420;BME280;63998;52.488;13.428;2022-11-09T01:01:10;100535.78;;;12.70;61.43
75420;BME280;63998;52.488;13.428;2022-11-09T01:03:38;100541.09;;;12.61;61.10
75420;BME280;63998;52.488;13.428;2022-11-09T01:06:05;100538.50;;;12.61;60.96
75420;BME280;63998;52.488;13.428;2022-11-09T01:08:32;100530.63;;;12.64;61.20
75420;BME280;63998;52.488;13.428;2022-11-09T01:11:06;100527.25;;;12.55;60.57
75420;BME280;63998;52.488;13.428;2022-11-09T01:13:35;100532.44;;;12.58;60.70
75420;BME280;63998;52.488;13.428;2022-11-09T01:16:05;100529.78;;;12.62;60.48
75420;BME280;63998;52.488;13.428;2022-11-09T01:18:31;100528.94;;;12.59;61.21
75420;BME280;63998;52.488;13.428;2022-11-09T01:20:57;100534.97;;;12.62;60.50
75420;BME280;63998;52.488;13.428;2022-11-09T01:23:22;100526.28;;;12.66;60.86
75420;BME280;63998;52.488;13.428;2022-11-09T01:25:47;100520.16;;;12.70;60.65
75420;BME280;63998;52.488;13.428;2022-11-09T01:28:13;100516.69;;;12.68;60.76
75420;BME280;63998;52.488;13.428;2022-11-09T01:30:40;100511.50;;;12.65;60.49
75420;BME280;63998;52.488;13.428;2022-11-09T01:33:10;100514.13;;;12.63;60.79
75420;BME280;63998;52.488;13.428;2022-11-09T01:35:39;100513.25;;;12.63;61.07
75420;BME280;63998;52.488;13.428;2022-11-09T01:38:05;100513.22;;;12.69;61.25
75420;BME280;63998;52.488;13.428;2022-11-09T01:40:35;100505.44;;;12.63;60.86
75420;BME280;63998;52.488;13.428;2022-11-09T01:45:38;100508.13;;;12.56;60.96
75420;BME280;63998;52.488;13.428;2022-11-09T01:48:10;100509.88;;;12.54;61.04
75420;BME280;63998;52.488;13.428;2022-11-09T01:50:43;100513.38;;;12.53;60.67
75420;BME280;63998;52.488;13.428;2022-11-09T01:53:16;100516.84;;;12.52;60.90
75420;BME280;63998;52.488;13.428;2022-11-09T01:55:46;100510.84;;;12.46;61.25
75420;BME280;63998;52.488;13.428;2022-11-09T01:58:27;100505.59;;;12.49;61.31
75420;BME280;63998;52.488;13.428;2022-11-09T02:00:55;100510.03;;;12.39;61.63
75420;BME280;63998;52.488;13.428;2022-11-09T02:03:22;100497.84;;;12.41;61.70
75420;BME280;63998;52.488;13.428;2022-11-09T02:05:49;100501.41;;;12.36;61.06
75420;BME280;63998;52.488;13.428;2022-11-09T02:08:22;100490.13;;;12.35;61.75
75420;BME280;63998;52.488;13.428;2022-11-09T02:13:21;100480.56;;;12.34;62.11
75420;BME280;63998;52.488;13.428;2022-11-09T02:15:49;100485.81;;;12.31;61.97
75420;BME280;63998;52.488;13.428;2022-11-09T02:18:15;100484.91;;;12.34;61.96
75420;BME280;63998;52.488;13.428;2022-11-09T02:20:47;100478.78;;;12.38;61.95
75420;BME280;63998;52.488;13.428;2022-11-09T02:23:13;100476.13;;;12.45;63.01
75420;BME280;63998;52.488;13.428;2022-11-09T02:28:08;100475.38;;;12.34;61.39
75420;BME280;63998;52.488;13.428;2022-11-09T02:30:36;100478.81;;;12.36;62.48
75420;BME280;63998;52.488;13.428;2022-11-09T02:33:01;100486.66;;;12.35;62.11
75420;BME280;63998;52.488;13.428;2022-11-09T02:35:27;100484.91;;;12.34;61.80
75420;BME280;63998;52.488;13.428;2022-11-09T02:37:52;100478.88;;;12.30;61.99
75420;BME280;63998;52.488;13.428;2022-11-09T02:40:28;100482.25;;;12.38;63.17
75420;BME280;63998;52.488;13.428;2022-11-09T02:42:58;100473.66;;;12.30;61.89
75420;BME280;63998;52.488;13.428;2022-11-09T02:45:24;100477.16;;;12.26;62.42
75420;BME280;63998;52.488;13.428;2022-11-09T02:47:49;100474.53;;;12.29;62.01
75420;BME280;63998;52.488;13.428;2022-11-09T02:50:15;100466.78;;;12.23;62.23
75420;BME280;63998;52.488;13.428;2022-11-09T02:52:40;100463.31;;;12.21;62.20
75420;BME280;63998;52.488;13.428;2022-11-09T02:55:06;100468.47;;;12.24;62.21
75420;BME280;63998;52.488;13.428;2022-11-09T02:57:31;100473.75;;;12.18;62.23
75420;BME280;63998;52.488;13.428;2022-11-09T02:59:56;100475.50;;;12.16;62.50
75420;BME280;63998;52.488;13.428;2022-11-09T03:02:22;100479.88;;;12.12;62.37
75420;BME280;63998;52.488;13.428;2022-11-09T03:04:47;100477.25;;;12.14;62.92
75420;BME280;63998;52.488;13.428;2022-11-09T03:07:15;100478.19;;;12.11;62.79
75420;BME280;63998;52.488;13.428;2022-11-09T03:09:40;100480.75;;;12.13;62.48
75420;BME280;63998;52.488;13.428;2022-11-09T03:12:05;100475.59;;;12.05;62.61
75420;BME280;63998;52.488;13.428;2022-11-09T03:14:52;100468.69;;;12.03;62.61
75420;BME280;63998;52.488;13.428;2022-11-09T03:17:19;100473.97;;;11.97;62.80
75420;BME280;63998;52.488;13.428;2022-11-09T03:19:45;100468.69;;;12.03;63.99
75420;BME280;63998;52.488;13.428;2022-11-09T03:22:15;100462.59;;;12.04;63.56
75420;BME280;63998;52.488;13.428;2022-11-09T03:24:41;100454.78;;;12.07;63.26
75420;BME280;63998;52.488;13.428;2022-11-09T03:27:06;100458.16;;;12.15;63.32
75420;BME280;63998;52.488;13.428;2022-11-09T03:29:32;100451.19;;;12.20;62.94
75420;BME280;63998;52.488;13.428;2022-11-09T03:31:57;100470.28;;;12.19;62.41
75420;BME280;63998;52.488;13.428;2022-11-09T03:34:23;100467.69;;;12.20;63.26
75420;BME280;63998;52.488;13.428;2022-11-09T03:36:48;100460.66;;;12.27;62.42
75420;BME280;63998;52.488;13.428;2022-11-09T03:39:13;100464.97;;;12.31;63.49
75420;BME280;63998;52.488;13.428;2022-11-09T03:41:39;100466.78;;;12.23;61.87
75420;BME280;63998;52.488;13.428;2022-11-09T03:44:04;100468.47;;;12.24;62.26
75420;BME280;63998;52.488;13.428;2022-11-09T03:46:30;100473.69;;;12.24;63.12
75420;BME280;63998;52.488;13.428;2022-11-09T03:48:55;100478.97;;;12.21;62.78
75420;BME280;63998;52.488;13.428;2022-11-09T03:51:20;100475.41;;;12.25;62.95
75420;BME280;63998;52.488;13.428;2022-11-09T03:53:46;100477.88;;;12.40;63.50
75420;BME280;63998;52.488;13.428;2022-11-09T03:56:16;100478.66;;;12.51;62.99
75420;BME280;63998;52.488;13.428;2022-11-09T03:58:43;100479.44;;;12.59;62.63
75420;BME280;63998;52.488;13.428;2022-11-09T04:01:09;100486.34;;;12.64;62.34
75420;BME280;63998;52.488;13.428;2022-11-09T04:03:35;100497.59;;;12.66;61.12
75420;BME280;63998;52.488;13.428;2022-11-09T04:06:00;100507.16;;;12.68;60.83
75420;BME280;63998;52.488;13.428;2022-11-09T04:08:26;100501.91;;;12.70;63.12
75420;BME280;63998;52.488;13.428;2022-11-09T04:10:54;100505.38;;;12.73;62.17
75420;BME280;63998;52.488;13.428;2022-11-09T04:13:19;100499.41;;;12.61;61.59
75420;BME280;63998;52.488;13.428;2022-11-09T04:15:45;100494.25;;;12.54;63.09
75420;BME280;63998;52.488;13.428;2022-11-09T04:18:13;100494.22;;;12.59;62.14
75420;BME280;63998;52.488;13.428;2022-11-09T04:20:38;100490.72;;;12.60;62.62
75420;BME280;63998;52.488;13.428;2022-11-09T04:23:08;100487.19;;;12.66;62.27
75420;BME280;63998;52.488;13.428;2022-11-09T04:25:36;100480.22;;;12.68;62.47
75420;BME280;63998;52.488;13.428;2022-11-09T04:28:03;100476.72;;;12.69;62.91
75420;BME280;63998;52.488;13.428;2022-11-09T04:30:30;100475.00;;;12.68;63.19
75420;BME280;63998;52.488;13.428;2022-11-09T04:32:57;100474.25;;;12.58;62.26
75420;BME280;63998;52.488;13.428;2022-11-09T04:35:23;100481.25;;;12.53;63.53
75420;BME280;63998;52.488;13.428;2022-11-09T04:37:58;100475.16;;;12.52;64.48
75420;BME280;63998;52.488;13.428;2022-11-09T04:40:25;100475.16;;;12.52;64.45
75420;BME280;63998;52.488;13.428;2022-11-09T04:42:51;100481.22;;;12.54;64.30
75420;BME280;63998;52.488;13.428;2022-11-09T04:45:19;100484.75;;;12.49;65.10
75420;BME280;63998;52.488;13.428;2022-11-09T04:47:44;100479.66;;;12.37;65.94
75420;BME280;63998;52.488;13.428;2022-11-09T04:50:10;100483.94;;;12.45;67.09
75420;BME280;63998;52.488;13.428;2022-11-09T04:52:38;100493.53;;;12.39;67.22
75420;BME280;63998;52.488;13.428;2022-11-09T04:55:06;100489.25;;;12.36;67.87
75420;BME280;63998;52.488;13.428;2022-11-09T04:57:32;100480.44;;;12.46;68.43
75420;BME280;63998;52.488;13.428;2022-11-09T04:59:57;100483.97;;;12.39;68.26
75420;BME280;63998;52.488;13.428;2022-11-09T05:02:23;100490.88;;;12.43;68.63
75420;BME280;63998;52.488;13.428;2022-11-09T05:04:48;100490.06;;;12.40;68.40
75420;BME280;63998;52.488;13.428;2022-11-09T05:07:14;100497.84;;;12.44;69.71
75420;BME280;63998;52.488;13.428;2022-11-09T05:09:39;100500.44;;;12.46;68.65
75420;BME280;63998;52.488;13.428;2022-11-09T05:12:05;100505.75;;;12.35;68.30
75420;BME280;63998;52.488;13.428;2022-11-09T05:14:30;100492.78;;;12.26;68.53
75420;BME280;63998;52.488;13.428;2022-11-09T05:16:58;100502.31;;;12.29;69.04
75420;BME280;63998;52.488;13.428;2022-11-09T05:19:26;100497.97;;;12.26;68.57
75420;BME280;63998;52.488;13.428;2022-11-09T05:21:53;100494.50;;;12.27;68.95
75420;BME280;63998;52.488;13.428;2022-11-09T05:24:19;100499.72;;;12.24;69.04
75420;BME280;63998;52.488;13.428;2022-11-09T05:26:46;100505.84;;;12.21;69.37
75420;BME280;63998;52.488;13.428;2022-11-09T05:29:12;100496.31;;;12.19;70.09
75420;BME280;63998;52.488;13.428;2022-11-09T05:31:39;100494.50;;;12.27;70.45
75420;BME280;63998;52.488;13.428;2022-11-09T05:34:06;100492.78;;;12.26;69.61
75420;BME280;63998;52.488;13.428;2022-11-09T05:36:32;100498.84;;;12.25;70.41
75420;BME280;63998;52.488;13.428;2022-11-09T05:38:58;100506.66;;;12.25;70.14
75420;BME280;63998;52.488;13.428;2022-11-09T05:41:26;100510.22;;;12.15;70.92
75420;BME280;63998;52.488;13.428;2022-11-09T05:43:52;100505.84;;;12.21;71.04
75420;BME280;63998;52.488;13.428;2022-11-09T05:46:17;100509.38;;;12.13;70.82
75420;BME280;63998;52.488;13.428;2022-11-09T05:48:43;100508.47;;;12.20;71.30
75420;BME280;63998;52.488;13.428;2022-11-09T05:51:11;100509.34;;;12.17;70.98
75420;BME280;63998;52.488;13.428;2022-11-09T05:53:39;100511.88;;;12.25;71.29
75420;BME280;63998;52.488;13.428;2022-11-09T05:56:07;100510.13;;;12.27;71.87
75420;BME280;63998;52.488;13.428;2022-11-09T05:58:35;100506.72;;;12.20;71.35
75420;BME280;63998;52.488;13.428;2022-11-09T06:01:12;100511.00;;;12.26;71.01
75420;BME280;63998;52.488;13.428;2022-11-09T06:03:40;100514.56;;;12.19;70.55
75420;BME280;63998;52.488;13.428;2022-11-09T06:06:10;100503.25;;;12.23;71.64
75420;BME280;63998;52.488;13.428;2022-11-09T06:08:35;100508.34;;;12.35;71.99
75420;BME280;63998;52.488;13.428;2022-11-09T06:11:04;100511.72;;;12.46;71.33
75420;BME280;63998;52.488;13.428;2022-11-09T06:13:32;100508.13;;;12.58;71.90
75420;BME280;63998;52.488;13.428;2022-11-09T06:16:00;100522.00;;;12.58;71.10
75420;BME280;63998;52.488;13.428;2022-11-09T06:18:28;100527.16;;;12.62;71.81
75420;BME280;63998;52.488;13.428;2022-11-09T06:20:55;100527.22;;;12.58;70.84
75420;BME280;63998;52.488;13.428;2022-11-09T06:23:21;100527.25;;;12.55;70.08
75420;BME280;63998;52.488;13.428;2022-11-09T06:26:03;100528.97;;;12.56;69.90
75420;BME280;63998;52.488;13.428;2022-11-09T06:28:31;100544.53;;;12.61;70.34
75420;BME280;63998;52.488;13.428;2022-11-09T06:31:00;100544.59;;;12.58;69.51
75420;BME280;63998;52.488;13.428;2022-11-09T06:33:28;100542.91;;;12.49;69.35
75420;BME280;63998;52.488;13.428;2022-11-09T06:35:55;100539.44;;;12.50;69.86
75420;BME280;63998;52.488;13.428;2022-11-09T06:38:21;100539.50;;;12.47;69.61
75420;BME280;63998;52.488;13.428;2022-11-09T06:40:56;100539.53;;;12.41;69.89
75420;BME280;63998;52.488;13.428;2022-11-09T06:43:22;100539.53;;;12.41;69.92
75420;BME280;63998;52.488;13.428;2022-11-09T06:45:47;100542.97;;;12.46;69.85
75420;BME280;63998;52.488;13.428;2022-11-09T06:48:17;100542.03;;;12.53;70.36
75420;BME280;63998;52.488;13.428;2022-11-09T06:50:43;100549.06;;;12.45;69.82
75420;BME280;63998;52.488;13.428;2022-11-09T06:53:12;100555.06;;;12.50;70.28
75420;BME280;63998;52.488;13.428;2022-11-09T06:55:38;100548.16;;;12.48;69.46
75420;BME280;63998;52.488;13.428;2022-11-09T06:58:14;100553.41;;;12.46;69.76
75420;BME280;63998;52.488;13.428;2022-11-09T07:00:43;100559.53;;;12.38;69.54
75420;BME280;63998;52.488;13.428;2022-11-09T07:03:15;100565.66;;;12.35;69.42
75420;BME280;63998;52.488;13.428;2022-11-09T07:05:44;100565.69;;;12.29;69.86
75420;BME280;63998;52.488;13.428;2022-11-09T07:08:12;100566.56;;;12.27;70.55
75420;BME280;63998;52.488;13.428;2022-11-09T07:10:39;100563.16;;;12.21;71.00
75420;BME280;63998;52.488;13.428;2022-11-09T07:13:07;100570.09;;;12.21;71.64
75420;BME280;63998;52.488;13.428;2022-11-09T07:15:34;100565.78;;;12.14;71.34
75420;BME280;63998;52.488;13.428;2022-11-09T07:18:06;100563.19;;;12.15;72.00
75420;BME280;63998;52.488;13.428;2022-11-09T07:20:32;100547.56;;;12.15;72.23
75420;BME280;63998;52.488;13.428;2022-11-09T07:22:58;100535.47;;;12.07;72.71
75420;BME280;63998;52.488;13.428;2022-11-09T07:25:28;100525.03;;;12.11;72.81
75420;BME280;63998;52.488;13.428;2022-11-09T07:27:53;100520.63;;;12.21;73.30
75420;BME280;63998;52.488;13.428;2022-11-09T07:30:21;100530.19;;;12.19;73.40
75420;BME280;63998;52.488;13.428;2022-11-09T07:32:46;100532.78;;;12.16;73.79
75420;BME280;63998;52.488;13.428;2022-11-09T07:35:12;100531.91;;;12.18;73.91
75420;BME280;63998;52.488;13.428;2022-11-09T07:37:37;100521.50;;;12.20;74.61
75420;BME280;63998;52.488;13.428;2022-11-09T07:40:03;100518.88;;;12.23;74.96
75420;BME280;63998;52.488;13.428;2022-11-09T07:42:28;100511.84;;;12.28;74.69
75420;BME280;63998;52.488;13.428;2022-11-09T07:44:54;100510.03;;;12.38;75.36
75420;BME280;63998;52.488;13.428;2022-11-09T07:47:21;100515.31;;;12.33;74.69
75420;BME280;63998;52.488;13.428;2022-11-09T07:49:47;100532.75;;;12.22;74.83
75420;BME280;63998;52.488;13.428;2022-11-09T07:52:12;100565.84;;;12.11;75.12
75420;BME280;63998;52.488;13.428;2022-11-09T07:54:38;100574.56;;;12.01;75.62
75420;BME280;63998;52.488;13.428;2022-11-09T07:57:04;100581.56;;;11.90;75.55
75420;BME280;63998;52.488;13.428;2022-11-09T07:59:30;100573.81;;;11.80;76.90
75420;BME280;63998;52.488;13.428;2022-11-09T08:01:56;100579.91;;;11.82;77.02
75420;BME280;63998;52.488;13.428;2022-11-09T08:04:21;100578.16;;;11.84;77.05
75420;BME280;63998;52.488;13.428;2022-11-09T08:06:46;100566.03;;;11.74;77.08
75420;BME280;63998;52.488;13.428;2022-11-09T08:09:11;100568.63;;;11.77;77.54
75420;BME280;63998;52.488;13.428;2022-11-09T08:11:37;100590.31;;;11.76;77.51
75420;BME280;63998;52.488;13.428;2022-11-09T08:14:07;100585.09;;;11.82;77.83
75420;BME280;63998;52.488;13.428;2022-11-09T08:16:32;100565.13;;;11.84;77.73
75420;BME280;63998;52.488;13.428;2022-11-09T08:18:57;100566.00;;;11.83;76.92
75420;BME280;63998;52.488;13.428;2022-11-09T08:21:23;100577.22;;;11.92;77.52
75420;BME280;63998;52.488;13.428;2022-11-09T08:23:50;100578.09;;;11.91;76.77
75420;BME280;63998;52.488;13.428;2022-11-09T08:26:15;100581.56;;;11.90;77.08
75420;BME280;63998;52.488;13.428;2022-11-09T08:28:41;100574.63;;;11.92;77.20
75420;BME280;63998;52.488;13.428;2022-11-09T08:31:07;100565.91;;;11.99;76.97
75420;BME280;63998;52.488;13.428;2022-11-09T08:33:38;100571.06;;;12.05;77.56
75420;BME280;63998;52.488;13.428;2022-11-09T08:36:11;100555.44;;;12.08;77.17
75420;BME280;63998;52.488;13.428;2022-11-09T08:38:37;100560.66;;;12.05;76.91
75420;BME280;63998;52.488;13.428;2022-11-09T08:41:05;100560.56;;;12.14;76.37
75420;BME280;63998;52.488;13.428;2022-11-09T08:43:33;100567.50;;;12.16;76.74
75420;BME280;63998;52.488;13.428;2022-11-09T08:45:58;100571.06;;;12.02;76.61
75420;BME280;63998;52.488;13.428;2022-11-09T08:48:26;100581.50;;;12.02;76.61
75420;BME280;63998;52.488;13.428;2022-11-09T08:50:56;100585.00;;;11.98;77.35
75420;BME280;63998;52.488;13.428;2022-11-09T08:53:23;100585.00;;;11.98;77.16
75420;BME280;63998;52.488;13.428;2022-11-09T08:55:51;100588.50;;;11.95;77.32
75420;BME280;63998;52.488;13.428;2022-11-09T08:58:17;100590.22;;;11.98;76.97
75420;BME280;63998;52.488;13.428;2022-11-09T09:00:43;100589.28;;;12.06;77.70
75420;BME280;63998;52.488;13.428;2022-11-09T09:03:10;100583.22;;;12.06;76.98
75420;BME280;63998;52.488;13.428;2022-11-09T09:05:36;100583.19;;;12.09;77.51
75420;BME280;63998;52.488;13.428;2022-11-09T09:08:05;100591.88;;;12.08;77.14
75420;BME280;63998;52.488;13.428;2022-11-09T09:10:31;100588.38;;;12.12;76.78
75420;BME280;63998;52.488;13.428;2022-11-09T09:12:59;100603.97;;;12.12;77.42
75420;BME280;63998;52.488;13.428;2022-11-09T09:15:24;100598.69;;;12.24;77.38
75420;BME280;63998;52.488;13.428;2022-11-09T09:17:49;100613.47;;;12.23;77.09
75420;BME280;63998;52.488;13.428;2022-11-09T09:20:15;100606.47;;;12.29;76.98
75420;BME280;63998;52.488;13.428;2022-11-09T09:22:42;100612.53;;;12.32;76.84
75420;BME280;63998;52.488;13.428;2022-11-09T09:25:09;100609.09;;;12.24;76.71
75420;BME280;63998;52.488;13.428;2022-11-09T09:27:42;100590.88;;;12.27;77.40
75420;BME280;63998;52.488;13.428;2022-11-09T09:30:08;100588.16;;;12.42;77.40
75420;BME280;63998;52.488;13.428;2022-11-09T09:32:36;100600.19;;;12.55;77.16
75420;BME280;63998;52.488;13.428;2022-11-09T09:35:01;100613.19;;;12.60;76.48
75420;BME280;63998;52.488;13.428;2022-11-09T09:37:28;100609.63;;;12.70;76.33
75420;BME280;63998;52.488;13.428;2022-11-09T09:39:56;100609.56;;;12.76;75.86
75420;BME280;63998;52.488;13.428;2022-11-09T09:42:33;100622.56;;;12.81;75.50
75420;BME280;63998;52.488;13.428;2022-11-09T09:45:03;100622.59;;;12.75;75.18
75420;BME280;63998;52.488;13.428;2022-11-09T09:50:05;100620.97;;;12.62;75.58
75420;BME280;63998;52.488;13.428;2022-11-09T09:52:49;100629.59;;;12.73;75.55
75420;BME280;63998;52.488;13.428;2022-11-09T09:58:22;100634.06;;;12.57;75.86
75420;BME280;63998;52.488;13.428;2022-11-09T10:00:51;100640.13;;;12.61;75.96
75420;BME280;63998;52.488;13.428;2022-11-09T10:03:19;100643.53;;;12.64;75.66
75420;BME280;63998;52.488;13.428;2022-11-09T10:05:47;100655.75;;;12.61;75.50
75420;BME280;63998;52.488;13.428;2022-11-09T10:08:37;100645.28;;;12.64;75.74
75420;BME280;63998;52.488;13.428;2022-11-09T10:11:23;100634.88;;;12.62;75.86
75420;BME280;63998;52.488;13.428;2022-11-09T10:22:13;100637.53;;;12.57;75.98
75420;BME280;63998;52.488;13.428;2022-11-09T10:27:28;100640.16;;;12.54;76.61
75420;BME280;63998;52.488;13.428;2022-11-09T10:30:01;100639.28;;;12.55;76.39
75420;BME280;63998;52.488;13.428;2022-11-09T10:32:29;100634.00;;;12.63;76.18
75420;BME280;63998;52.488;13.428;2022-11-09T10:37:44;100623.56;;;12.63;76.32
75420;BME280;63998;52.488;13.428;2022-11-09T10:40:17;100617.47;;;12.69;76.35
75420;BME280;63998;52.488;13.428;2022-11-09T10:42:52;100611.31;;;12.76;76.23
75420;BME280;63998;52.488;13.428;2022-11-09T10:45:36;100617.25;;;12.90;75.95
75420;BME280;63998;52.488;13.428;2022-11-09T10:48:05;100607.63;;;12.98;74.96
75420;BME280;63998;52.488;13.428;2022-11-09T11:03:29;100589.84;;;14.02;71.42
75420;BME280;63998;52.488;13.428;2022-11-09T11:06:01;100591.53;;;14.07;71.06
75420;BME280;63998;52.488;13.428;2022-11-09T11:08:36;100568.78;;;14.12;70.74
75420;BME280;63998;52.488;13.428;2022-11-09T11:11:16;100580.97;;;14.11;70.65
75420;BME280;63998;52.488;13.428;2022-11-09T11:13:43;100572.75;;;14.35;70.47
75420;BME280;63998;52.488;13.428;2022-11-09T11:16:28;100568.22;;;14.48;70.04
75420;BME280;63998;52.488;13.428;2022-11-09T11:18:58;100574.06;;;14.64;68.76
75420;BME280;63998;52.488;13.428;2022-11-09T11:21:24;100575.50;;;14.83;68.52
75420;BME280;63998;52.488;13.428;2022-11-09T11:24:07;100574.41;;;14.95;68.04
75420;BME280;63998;52.488;13.428;2022-11-09T11:26:41;100572.31;;;15.12;67.56
75420;BME280;63998;52.488;13.428;2022-11-09T11:31:53;100573.94;;;15.19;66.48
75420;BME280;63998;52.488;13.428;2022-11-09T11:34:18;100581.06;;;15.09;66.86
75420;BME280;63998;52.488;13.428;2022-11-09T11:37:18;100585.34;;;15.15;66.54
75420;BME280;63998;52.488;13.428;2022-11-09T11:40:07;100574.97;;;15.54;66.19
75420;BME280;63998;52.488;13.428;2022-11-09T11:45:15;100570.81;;;15.85;64.88
75420;BME280;63998;52.488;13.428;2022-11-09T11:56:08;100546.31;;;16.59;62.60
75420;BME280;63998;52.488;13.428;2022-11-09T11:59:11;100539.72;;;16.44;62.44
75420;BME280;63998;52.488;13.428;2022-11-09T12:01:50;100549.34;;;16.77;63.04
75420;BME280;63998;52.488;13.428;2022-11-09T12:07:39;100545.25;;;16.32;63.18
75420;BME280;63998;52.488;13.428;2022-11-09T12:10:33;100542.25;;;16.11;64.07
75420;BME280;63998;52.488;13.428;2022-11-09T12:13:05;100541.34;;;16.48;62.86
75420;BME280;63998;52.488;13.428;2022-11-09T12:15:42;100539.91;;;16.35;63.25
75420;BME280;63998;52.488;13.428;2022-11-09T12:23:24;100537.78;;;16.16;63.28
75420;BME280;63998;52.488;13.428;2022-11-09T12:34:14;100546.72;;;17.10;60.57
75420;BME280;63998;52.488;13.428;2022-11-09T12:36:52;100542.66;;;16.98;60.14
75420;BME280;63998;52.488;13.428;2022-11-09T12:39:45;100541.59;;;16.73;60.94
75420;BME280;63998;52.488;13.428;2022-11-09T12:42:24;100546.59;;;16.48;61.57
75420;BME280;63998;52.488;13.428;2022-11-09T12:47:29;100551.47;;;16.63;61.93
75420;BME280;63998;52.488;13.428;2022-11-09T12:49:56;100555.41;;;17.12;60.47
75420;BME280;63998;52.488;13.428;2022-11-09T12:52:25;100549.38;;;17.39;59.22
75420;BME280;63998;52.488;13.428;2022-11-09T12:54:52;100549.66;;;17.89;58.16
75420;BME280;63998;52.488;13.428;2022-11-09T12:57:24;100557.63;;;18.14;57.47
75420;BME280;63998;52.488;13.428;2022-11-09T12:59:51;100566.22;;;17.62;58.06
75420;BME280;63998;52.488;13.428;2022-11-09T13:04:57;100535.59;;;17.90;57.30
75420;BME280;63998;52.488;13.428;2022-11-09T13:09:55;100535.13;;;18.58;56.37
75420;BME280;63998;52.488;13.428;2022-11-09T13:12:39;100525.09;;;18.43;55.90
75420;BME280;63998;52.488;13.428;2022-11-09T13:15:28;100539.53;;;17.77;57.33
75420;BME280;63998;52.488;13.428;2022-11-09T13:17:57;100529.66;;;18.11;57.14
75420;BME280;63998;52.488;13.428;2022-11-09T13:25:52;100542.19;;;17.75;57.39
75420;BME280;63998;52.488;13.428;2022-11-09T13:30:57;100546.00;;;17.93;57.06
75420;BME280;63998;52.488;13.428;2022-11-09T13:33:27;100543.59;;;17.87;57.00
75420;BME280;63998;52.488;13.428;2022-11-09T13:38:25;100543.72;;;17.22;58.31
75420;BME280;63998;52.488;13.428;2022-11-09T13:40:54;100542.88;;;17.21;59.24
75420;BME280;63998;52.488;13.428;2022-11-09T13:43:38;100557.72;;;16.92;60.04
75420;BME280;63998;52.488;13.428;2022-11-09T13:48:46;100551.28;;;16.69;60.50
75420;BME280;63998;52.488;13.428;2022-11-09T13:56:53;100550.06;;;16.13;62.52
75420;BME280;63998;52.488;13.428;2022-11-09T14:01:54;100549.53;;;15.99;62.88
75420;BME280;63998;52.488;13.428;2022-11-09T14:07:15;100556.41;;;16.04;63.28
75420;BME280;63998;52.488;13.428;2022-11-09T14:20:58;100560.88;;;16.35;62.25
75420;BME280;63998;52.488;13.428;2022-11-09T14:23:30;100563.81;;;16.23;62.79
75420;BME280;63998;52.488;13.428;2022-11-09T14:25:56;100563.28;;;16.08;62.91
75420;BME280;63998;52.488;13.428;2022-11-09T14:28:27;100568.91;;;15.93;63.31
75420;BME280;63998;52.488;13.428;2022-11-09T14:30:53;100566.31;;;15.92;63.44
75420;BME280;63998;52.488;13.428;2022-11-09T14:33:20;100569.06;;;15.84;63.94
75420;BME280;63998;52.488;13.428;2022-11-09T14:35:46;100569.22;;;15.78;64.19
75420;BME280;63998;52.488;13.428;2022-11-09T14:38:27;100576.41;;;15.70;64.55
75420;BME280;63998;52.488;13.428;2022-11-09T14:40:55;100574.94;;;15.57;65.06
75420;BME280;63998;52.488;13.428;2022-11-09T14:43:24;100577.44;;;15.61;64.67